createdAt,value
2017-04-11T00:00:07.221Z,0
2017-04-11T00:01:07.202Z,0
2017-04-11T00:02:07.204Z,0
2017-04-11T00:03:07.177Z,0
2017-04-11T00:04:07.152Z,0
2017-04-11T00:05:07.139Z,0
2017-04-11T00:06:07.139Z,0
2017-04-11T00:07:06.801Z,0
2017-04-11T00:08:07.109Z,0
2017-04-11T00:09:07.069Z,0
2017-04-11T00:10:07.059Z,0
2017-04-11T00:11:07.039Z,0
2017-04-11T00:12:07.016Z,0
2017-04-11T00:13:07.003Z,0
2017-04-11T00:14:06.991Z,0
2017-04-11T00:15:07.024Z,0
2017-04-11T00:16:06.955Z,0
2017-04-11T00:17:06.947Z,0
2017-04-11T00:18:06.922Z,0
2017-04-11T00:19:06.608Z,0
2017-04-11T00:20:06.894Z,0
2017-04-11T00:21:06.869Z,0
2017-04-11T00:22:06.852Z,0
2017-04-11T00:23:06.839Z,0
2017-04-11T00:24:06.824Z,0
2017-04-11T00:25:06.811Z,0
2017-04-11T00:26:06.992Z,0
2017-04-11T00:27:06.690Z,0
2017-04-11T00:28:06.754Z,0
2017-04-11T00:29:06.751Z,0
2017-04-11T00:30:06.729Z,0
2017-04-11T00:31:06.710Z,0
2017-04-11T00:32:06.688Z,0
2017-04-11T00:33:06.674Z,0
2017-04-11T00:34:06.672Z,0
2017-04-11T00:35:06.649Z,0
2017-04-11T00:36:06.327Z,0
2017-04-11T00:37:06.611Z,0
2017-04-11T00:38:06.595Z,0
2017-04-11T00:39:06.273Z,0
2017-04-11T00:40:06.558Z,0
2017-04-11T00:41:06.553Z,0
2017-04-11T00:42:06.528Z,0
2017-04-11T00:43:06.206Z,0
2017-04-11T00:44:06.490Z,0
2017-04-11T00:45:06.480Z,0
2017-04-11T00:46:06.456Z,0
2017-04-11T00:47:06.152Z,0
2017-04-11T00:48:06.431Z,0
2017-04-11T00:49:06.413Z,0
2017-04-11T00:50:06.392Z,0
2017-04-11T00:51:06.381Z,0
2017-04-11T00:52:06.353Z,0
2017-04-11T00:53:06.348Z,0
2017-04-11T00:54:06.336Z,0
2017-04-11T00:55:05.714Z,0
2017-04-11T00:56:06.538Z,0
2017-04-11T00:57:06.183Z,0
2017-04-11T00:58:05.959Z,0
2017-04-11T00:59:06.234Z,0
2017-04-11T01:00:06.233Z,0
2017-04-11T01:01:06.115Z,0
2017-04-11T01:02:05.889Z,0
2017-04-11T01:03:05.866Z,0
2017-04-11T01:04:05.890Z,0
2017-04-11T01:05:05.831Z,0
2017-04-11T01:06:05.819Z,0
2017-04-11T01:07:06.112Z,0
2017-04-11T01:08:06.083Z,0
2017-04-11T01:09:06.073Z,0
2017-04-11T01:10:06.064Z,0
2017-04-11T01:11:06.050Z,0
2017-04-11T01:12:06.028Z,0
2017-04-11T01:13:06.016Z,0
2017-04-11T01:14:05.996Z,0
2017-04-11T01:15:05.669Z,0
2017-04-11T01:16:05.963Z,0
2017-04-11T01:17:05.940Z,0
2017-04-11T01:18:05.625Z,0
2017-04-11T01:19:05.915Z,0
2017-04-11T01:20:05.908Z,0
2017-04-11T01:21:05.878Z,0
2017-04-11T01:22:05.866Z,0
2017-04-11T01:23:05.845Z,0
2017-04-11T01:24:05.839Z,0
2017-04-11T01:25:05.811Z,0
2017-04-11T01:26:05.796Z,0
2017-04-11T01:27:05.782Z,0
2017-04-11T01:28:05.765Z,0
2017-04-11T01:29:05.750Z,0
2017-04-11T01:30:05.728Z,0
2017-04-11T01:31:05.709Z,0
2017-04-11T01:32:05.693Z,0
2017-04-11T01:33:05.681Z,0
2017-04-11T01:34:05.658Z,0
2017-04-11T01:35:05.646Z,0
2017-04-11T01:36:05.839Z,0
2017-04-11T01:37:05.311Z,0
2017-04-11T01:38:05.598Z,0
2017-04-11T01:39:05.588Z,0
2017-04-11T01:40:05.559Z,0
2017-04-11T01:41:05.548Z,0
2017-04-11T01:42:05.528Z,0
2017-04-11T01:43:05.509Z,0
2017-04-11T01:44:05.493Z,0
2017-04-11T01:45:05.477Z,0
2017-04-11T01:46:05.460Z,0
2017-04-11T01:47:05.447Z,0
2017-04-11T01:48:05.418Z,0
2017-04-11T01:49:05.405Z,0
2017-04-11T01:50:05.395Z,0
2017-04-11T01:51:05.379Z,0
2017-04-11T01:52:05.058Z,0
2017-04-11T01:53:05.385Z,0
2017-04-11T01:54:05.031Z,0
2017-04-11T01:55:05.008Z,0
2017-04-11T01:56:05.293Z,0
2017-04-11T01:57:04.978Z,0
2017-04-11T01:58:05.264Z,0
2017-04-11T01:59:05.236Z,0
2017-04-11T02:00:04.920Z,0
2017-04-11T02:01:05.207Z,0
2017-04-11T02:02:05.186Z,0
2017-04-11T02:03:05.168Z,0
2017-04-11T02:04:05.164Z,0
2017-04-11T02:05:05.140Z,0
2017-04-11T02:06:05.120Z,0
2017-04-11T02:07:05.103Z,0
2017-04-11T02:08:05.083Z,0
2017-04-11T02:09:05.064Z,0
2017-04-11T02:10:05.067Z,0
2017-04-11T02:11:05.030Z,0
2017-04-11T02:12:05.013Z,0
2017-04-11T02:13:05.038Z,0
2017-04-11T02:14:04.671Z,0
2017-04-11T02:15:04.966Z,0
2017-04-11T02:16:04.947Z,0
2017-04-11T02:17:04.927Z,0
2017-04-11T02:18:04.916Z,0
2017-04-11T02:19:04.902Z,0
2017-04-11T02:20:04.877Z,0
2017-04-11T02:21:04.862Z,0
2017-04-11T02:22:04.544Z,0
2017-04-11T02:23:04.832Z,0
2017-04-11T02:24:04.806Z,0
2017-04-11T02:25:04.791Z,0
2017-04-11T02:26:04.768Z,0
2017-04-11T02:27:04.764Z,0
2017-04-11T02:28:04.740Z,0
2017-04-11T02:29:04.723Z,0
2017-04-11T02:30:04.707Z,0
2017-04-11T02:31:04.699Z,0
2017-04-11T02:32:04.672Z,0
2017-04-11T02:33:04.651Z,0
2017-04-11T02:34:04.634Z,0
2017-04-11T02:35:04.612Z,0
2017-04-11T02:36:04.298Z,0
2017-04-11T02:37:04.575Z,0
2017-04-11T02:38:04.565Z,0
2017-04-11T02:39:04.550Z,0
2017-04-11T02:40:04.524Z,0
2017-04-11T02:41:04.509Z,0
2017-04-11T02:42:04.184Z,0
2017-04-11T02:43:04.175Z,0
2017-04-11T02:44:04.456Z,0
2017-04-11T02:45:04.440Z,0
2017-04-11T02:46:04.419Z,0
2017-04-11T02:47:04.402Z,0
2017-04-11T02:48:04.382Z,0
2017-04-11T02:49:04.364Z,0
2017-04-11T02:50:04.045Z,0
2017-04-11T02:51:04.329Z,0
2017-04-11T02:52:04.304Z,0
2017-04-11T02:53:04.331Z,0
2017-04-11T02:54:04.269Z,0
2017-04-11T02:55:04.254Z,0
2017-04-11T02:56:03.635Z,0
2017-04-11T02:57:04.220Z,0
2017-04-11T02:58:04.202Z,0
2017-04-11T02:59:03.887Z,0
2017-04-11T03:00:04.175Z,0
2017-04-11T03:01:03.851Z,0
2017-04-11T03:02:03.832Z,0
2017-04-11T03:03:03.822Z,0
2017-04-11T03:04:04.107Z,0
2017-04-11T03:05:04.082Z,0
2017-04-11T03:06:04.067Z,0
2017-04-11T03:07:03.744Z,0
2017-04-11T03:08:04.032Z,0
2017-04-11T03:09:04.013Z,0
2017-04-11T03:10:03.702Z,0
2017-04-11T03:11:03.679Z,0
2017-04-11T03:12:03.972Z,0
2017-04-11T03:13:03.946Z,0
2017-04-11T03:14:03.630Z,0
2017-04-11T03:15:03.911Z,0
2017-04-11T03:16:03.894Z,0
2017-04-11T03:17:03.877Z,0
2017-04-11T03:18:03.852Z,0
2017-04-11T03:19:03.837Z,0
2017-04-11T03:20:03.828Z,0
2017-04-11T03:21:03.503Z,0
2017-04-11T03:22:03.795Z,0
2017-04-11T03:23:03.466Z,0
2017-04-11T03:24:03.747Z,0
2017-04-11T03:25:03.736Z,0
2017-04-11T03:26:03.413Z,0
2017-04-11T03:27:03.405Z,0
2017-04-11T03:28:03.687Z,0
2017-04-11T03:29:03.663Z,0
2017-04-11T03:30:03.652Z,0
2017-04-11T03:31:03.642Z,0
2017-04-11T03:32:03.623Z,0
2017-04-11T03:33:03.600Z,0
2017-04-11T03:34:03.583Z,0
2017-04-11T03:35:03.566Z,0
2017-04-11T03:36:03.551Z,0
2017-04-11T03:37:03.534Z,0
2017-04-11T03:38:03.517Z,0
2017-04-11T03:39:03.499Z,0
2017-04-11T03:40:02.877Z,0
2017-04-11T03:41:03.463Z,0
2017-04-11T03:42:03.153Z,0
2017-04-11T03:43:03.130Z,0
2017-04-11T03:44:03.111Z,0
2017-04-11T03:45:03.141Z,0
2017-04-11T03:46:03.378Z,0
2017-04-11T03:47:03.055Z,0
2017-04-11T03:48:03.350Z,0
2017-04-11T03:49:03.037Z,0
2017-04-11T03:50:03.315Z,0
2017-04-11T03:51:03.288Z,0
2017-04-11T03:52:03.269Z,0
2017-04-11T03:53:03.288Z,0
2017-04-11T03:54:02.942Z,0
2017-04-11T03:55:03.212Z,0
2017-04-11T03:56:03.201Z,0
2017-04-11T03:57:03.182Z,0
2017-04-11T03:58:03.163Z,0
2017-04-11T03:59:03.143Z,0
2017-04-11T04:00:03.126Z,0
2017-04-11T04:01:03.114Z,0
2017-04-11T04:02:03.094Z,0
2017-04-11T04:03:03.084Z,0
2017-04-11T04:04:03.053Z,0
2017-04-11T04:05:03.086Z,0
2017-04-11T04:06:03.024Z,0
2017-04-11T04:07:03.000Z,0
2017-04-11T04:08:02.689Z,0
2017-04-11T04:09:02.971Z,0
2017-04-11T04:10:02.641Z,0
2017-04-11T04:11:02.936Z,0
2017-04-11T04:12:02.921Z,0
2017-04-11T04:13:02.940Z,0
2017-04-11T04:14:02.885Z,0
2017-04-11T04:15:02.260Z,0
2017-04-11T04:16:02.540Z,0
2017-04-11T04:17:02.820Z,0
2017-04-11T04:18:02.498Z,0
2017-04-11T04:19:02.184Z,0
2017-04-11T04:20:02.769Z,0
2017-04-11T04:21:02.450Z,0
2017-04-11T04:22:02.732Z,0
2017-04-11T04:23:02.411Z,0
2017-04-11T04:24:02.696Z,0
2017-04-11T04:25:02.677Z,0
2017-04-11T04:26:02.357Z,0
2017-04-11T04:27:02.643Z,0
2017-04-11T04:28:02.325Z,5
2017-04-11T04:29:02.305Z,5
2017-04-11T04:30:02.592Z,5
2017-04-11T04:31:02.589Z,5
2017-04-11T04:32:02.252Z,5
2017-04-11T04:33:02.538Z,5
2017-04-11T04:34:02.518Z,5
2017-04-11T04:35:02.497Z,5
2017-04-11T04:36:02.478Z,5
2017-04-11T04:37:02.457Z,10
2017-04-11T04:38:02.491Z,15
2017-04-11T04:39:02.429Z,15
2017-04-11T04:40:02.414Z,15
2017-04-11T04:41:02.392Z,20
2017-04-11T04:42:02.367Z,25
2017-04-11T04:43:02.350Z,25
2017-04-11T04:44:02.340Z,25
2017-04-11T04:45:02.311Z,25
2017-04-11T04:46:02.299Z,25
2017-04-11T04:47:02.274Z,25
2017-04-11T04:48:02.263Z,30
2017-04-11T04:49:01.950Z,35
2017-04-11T04:50:01.924Z,40
2017-04-11T04:51:02.238Z,50
2017-04-11T04:52:02.197Z,45
2017-04-11T04:53:01.864Z,45
2017-04-11T04:54:01.846Z,40
2017-04-11T04:55:02.129Z,45
2017-04-11T04:56:02.118Z,40
2017-04-11T04:57:01.798Z,40
2017-04-11T04:58:02.086Z,35
2017-04-11T04:59:02.067Z,40
2017-04-11T05:00:02.045Z,45
2017-04-11T05:01:02.028Z,50
2017-04-11T05:02:01.703Z,60
2017-04-11T05:03:02.041Z,70
2017-04-11T05:04:01.968Z,90
2017-04-11T05:05:01.952Z,95
2017-04-11T05:06:01.942Z,95
2017-04-11T05:07:01.930Z,95
2017-04-11T05:08:01.905Z,95
2017-04-11T05:09:01.883Z,105
2017-04-11T05:10:01.872Z,120
2017-04-11T05:11:01.882Z,135
2017-04-11T05:12:01.832Z,155
2017-04-11T05:13:01.810Z,170
2017-04-11T05:14:01.790Z,165
2017-04-11T05:15:01.768Z,175
2017-04-11T05:16:01.759Z,190
2017-04-11T05:17:01.733Z,190
2017-04-11T05:18:01.722Z,165
2017-04-11T05:19:01.705Z,155
2017-04-11T05:20:01.730Z,145
2017-04-11T05:21:01.661Z,140
2017-04-11T05:22:01.643Z,140
2017-04-11T05:23:01.632Z,135
2017-04-11T05:24:01.614Z,145
2017-04-11T05:25:01.597Z,140
2017-04-11T05:26:01.590Z,125
2017-04-11T05:27:01.258Z,130
2017-04-11T05:28:01.538Z,125
2017-04-11T05:29:01.521Z,120
2017-04-11T05:30:01.502Z,140
2017-04-11T05:31:01.482Z,160
2017-04-11T05:32:01.464Z,180
2017-04-11T05:33:01.456Z,180
2017-04-11T05:34:01.125Z,215
2017-04-11T05:35:01.417Z,315
2017-04-11T05:36:01.439Z,345
2017-04-11T05:37:01.372Z,465
2017-04-11T05:38:01.356Z,385
2017-04-11T05:39:01.335Z,285
2017-04-11T05:40:01.320Z,280
2017-04-11T05:41:01.310Z,300
2017-04-11T05:42:01.286Z,330
2017-04-11T05:43:01.273Z,310
2017-04-11T05:44:01.247Z,355
2017-04-11T05:45:01.235Z,420
2017-04-11T05:46:01.211Z,385
2017-04-11T05:47:01.191Z,350
2017-04-11T05:48:01.186Z,350
2017-04-11T05:49:01.162Z,395
2017-04-11T05:50:01.143Z,435
2017-04-11T05:51:01.123Z,435
2017-04-11T05:52:01.111Z,360
2017-04-11T05:53:01.092Z,355
2017-04-11T05:54:01.066Z,285
2017-04-11T05:55:01.053Z,320
2017-04-11T05:56:01.036Z,340
2017-04-11T05:57:01.013Z,305
2017-04-11T05:58:00.995Z,345
2017-04-11T05:59:00.991Z,305
2017-04-11T06:00:00.955Z,435
2017-04-11T06:01:00.934Z,455
2017-04-11T06:02:00.914Z,575
2017-04-11T06:03:00.902Z,640
2017-04-11T06:04:00.884Z,750
2017-04-11T06:05:00.865Z,600
2017-04-11T06:06:00.851Z,535
2017-04-11T06:07:00.529Z,545
2017-04-11T06:08:00.513Z,575
2017-04-11T06:09:00.788Z,495
2017-04-11T06:10:00.769Z,505
2017-04-11T06:11:00.752Z,495
2017-04-11T06:12:00.733Z,510
2017-04-11T06:13:00.719Z,485
2017-04-11T06:14:00.705Z,480
2017-04-11T06:15:00.683Z,515
2017-04-11T06:16:00.665Z,555
2017-04-11T06:17:00.337Z,730
2017-04-11T06:18:00.630Z,795
2017-04-11T06:19:00.623Z,825
2017-04-11T06:20:00.589Z,930
2017-04-11T06:21:00.577Z,945
2017-04-11T06:22:00.555Z,835
2017-04-11T06:23:00.527Z,780
2017-04-11T06:24:00.512Z,705
2017-04-11T06:25:00.204Z,770
2017-04-11T06:26:00.483Z,925
2017-04-11T06:27:00.462Z,935
2017-04-11T06:28:00.442Z,765
2017-04-11T06:29:00.418Z,735
2017-04-11T06:30:00.398Z,730
2017-04-11T06:31:00.386Z,690
2017-04-11T06:32:00.363Z,605
2017-04-11T06:33:00.343Z,555
2017-04-11T06:34:00.327Z,600
2017-04-11T06:35:00.010Z,615
2017-04-11T06:36:00.285Z,620
2017-04-11T06:37:00.271Z,720
2017-04-11T06:37:59.647Z,660
2017-04-11T06:39:00.232Z,635
2017-04-11T06:40:00.218Z,710
2017-04-11T06:40:59.893Z,675
2017-04-11T06:42:00.175Z,665
2017-04-11T06:43:00.165Z,875
2017-04-11T06:44:00.147Z,1165
2017-04-11T06:45:00.121Z,960
2017-04-11T06:46:00.103Z,770
2017-04-11T06:46:59.789Z,665
2017-04-11T06:48:00.075Z,565
2017-04-11T06:49:00.051Z,520
2017-04-11T06:49:59.771Z,465
2017-04-11T06:50:59.716Z,460
2017-04-11T06:51:59.694Z,510
2017-04-11T06:52:59.678Z,515
2017-04-11T06:53:59.661Z,600
2017-04-11T06:54:59.645Z,680
2017-04-11T06:55:59.626Z,990
2017-04-11T06:56:59.903Z,900
2017-04-11T06:57:59.896Z,900
2017-04-11T06:58:59.862Z,940
2017-04-11T06:59:59.859Z,1015
2017-04-11T07:00:59.830Z,1175
2017-04-11T07:01:59.810Z,1075
2017-04-11T07:02:59.789Z,1105
2017-04-11T07:03:59.778Z,1310
2017-04-11T07:04:59.764Z,1470
2017-04-11T07:05:59.737Z,1545
2017-04-11T07:06:59.715Z,1320
2017-04-11T07:07:59.704Z,1115
2017-04-11T07:08:59.688Z,1070
2017-04-11T07:09:59.659Z,1175
2017-04-11T07:10:59.647Z,1000
2017-04-11T07:11:59.624Z,980
2017-04-11T07:12:59.615Z,925
2017-04-11T07:13:59.587Z,1165
2017-04-11T07:14:59.265Z,1160
2017-04-11T07:15:59.550Z,1215
2017-04-11T07:16:59.546Z,1175
2017-04-11T07:17:59.521Z,1125
2017-04-11T07:18:59.238Z,1065
2017-04-11T07:19:59.479Z,975
2017-04-11T07:20:59.462Z,815
2017-04-11T07:21:59.443Z,770
2017-04-11T07:22:59.419Z,745
2017-04-11T07:23:59.107Z,820
2017-04-11T07:24:59.387Z,1060
2017-04-11T07:25:59.369Z,1025
2017-04-11T07:26:59.051Z,1040
2017-04-11T07:27:59.333Z,1030
2017-04-11T07:28:59.312Z,1060
2017-04-11T07:29:58.989Z,1115
2017-04-11T07:30:59.279Z,1040
2017-04-11T07:31:58.650Z,835
2017-04-11T07:32:58.933Z,765
2017-04-11T07:33:58.918Z,910
2017-04-11T07:34:58.904Z,1080
2017-04-11T07:35:59.175Z,1250
2017-04-11T07:36:58.869Z,1185
2017-04-11T07:37:58.842Z,1040
2017-04-11T07:38:59.125Z,930
2017-04-11T07:39:59.107Z,1025
2017-04-11T07:40:59.098Z,995
2017-04-11T07:41:58.775Z,1065
2017-04-11T07:42:59.055Z,1185
2017-04-11T07:43:59.032Z,1040
2017-04-11T07:44:59.018Z,920
2017-04-11T07:45:59.003Z,960
2017-04-11T07:46:58.977Z,925
2017-04-11T07:47:58.962Z,880
2017-04-11T07:48:58.946Z,860
2017-04-11T07:49:58.919Z,910
2017-04-11T07:50:58.902Z,875
2017-04-11T07:51:58.882Z,1060
2017-04-11T07:52:58.869Z,1260
2017-04-11T07:53:58.882Z,1085
2017-04-11T07:54:58.521Z,950
2017-04-11T07:55:58.807Z,980
2017-04-11T07:56:58.788Z,1065
2017-04-11T07:57:58.767Z,1265
2017-04-11T07:58:58.750Z,1365
2017-04-11T07:59:58.730Z,1315
2017-04-11T08:00:58.713Z,1365
2017-04-11T08:01:58.694Z,1430
2017-04-11T08:02:58.071Z,1345
2017-04-11T08:03:58.652Z,1440
2017-04-11T08:04:58.640Z,1370
2017-04-11T08:05:58.616Z,1225
2017-04-11T08:06:58.295Z,1160
2017-04-11T08:07:58.577Z,1010
2017-04-11T08:08:58.568Z,925
2017-04-11T08:09:57.937Z,1085
2017-04-11T08:10:57.920Z,1250
2017-04-11T08:11:58.207Z,1295
2017-04-11T08:12:58.490Z,1065
2017-04-11T08:13:58.467Z,1015
2017-04-11T08:14:58.442Z,1065
2017-04-11T08:15:58.434Z,1270
2017-04-11T08:16:58.413Z,1490
2017-04-11T08:17:58.392Z,1115
2017-04-11T08:18:58.375Z,895
2017-04-11T08:19:58.060Z,1335
2017-04-11T08:20:58.339Z,1235
2017-04-11T08:21:58.330Z,1020
2017-04-11T08:22:58.300Z,1090
2017-04-11T08:23:57.685Z,1150
2017-04-11T08:24:58.266Z,1080
2017-04-11T08:25:58.243Z,1035
2017-04-11T08:26:58.230Z,1245
2017-04-11T08:27:58.215Z,1745
2017-04-11T08:28:58.188Z,1605
2017-04-11T08:29:57.874Z,1995
2017-04-11T08:30:58.156Z,1620
2017-04-11T08:31:58.129Z,1475
2017-04-11T08:32:58.120Z,1530
2017-04-11T08:33:58.136Z,1540
2017-04-11T08:34:58.081Z,1495
2017-04-11T08:35:58.056Z,1360
2017-04-11T08:36:58.038Z,1335
2017-04-11T08:37:58.022Z,1425
2017-04-11T08:38:58.515Z,1425
2017-04-11T08:39:57.681Z,1365
2017-04-11T08:40:57.962Z,1475
2017-04-11T08:41:57.947Z,1590
2017-04-11T08:42:57.628Z,1515
2017-04-11T08:43:57.909Z,1345
2017-04-11T08:44:57.887Z,1340
2017-04-11T08:45:57.869Z,1725
2017-04-11T08:46:57.866Z,1495
2017-04-11T08:47:57.843Z,1420
2017-04-11T08:48:57.819Z,1420
2017-04-11T08:49:57.800Z,1585
2017-04-11T08:50:57.777Z,1630
2017-04-11T08:51:57.455Z,1770
2017-04-11T08:52:57.747Z,1860
2017-04-11T08:53:57.723Z,1995
2017-04-11T08:54:57.711Z,1810
2017-04-11T08:55:57.688Z,2195
2017-04-11T08:56:57.376Z,2060
2017-04-11T08:57:57.655Z,1885
2017-04-11T08:58:57.631Z,1540
2017-04-11T08:59:57.315Z,1280
2017-04-11T09:00:57.299Z,1435
2017-04-11T09:01:57.273Z,1680
2017-04-11T09:02:57.592Z,1615
2017-04-11T09:03:57.537Z,1575
2017-04-11T09:04:57.226Z,1440
2017-04-11T09:05:57.500Z,2020
2017-04-11T09:06:57.485Z,2240
2017-04-11T09:07:57.170Z,1995
2017-04-11T09:08:57.450Z,1950
2017-04-11T09:09:57.422Z,1690
2017-04-11T09:10:57.425Z,1835
2017-04-11T09:11:57.392Z,2120
2017-04-11T09:12:57.379Z,1585
2017-04-11T09:13:57.365Z,1440
2017-04-11T09:14:57.340Z,1690
2017-04-11T09:15:57.310Z,1660
2017-04-11T09:16:57.301Z,2025
2017-04-11T09:17:57.285Z,1620
2017-04-11T09:18:57.259Z,2190
2017-04-11T09:19:57.256Z,2130
2017-04-11T09:20:57.218Z,1700
2017-04-11T09:21:57.205Z,1420
2017-04-11T09:22:57.182Z,1525
2017-04-11T09:23:57.160Z,2115
2017-04-11T09:24:56.844Z,2005
2017-04-11T09:25:57.129Z,1705
2017-04-11T09:26:57.114Z,1510
2017-04-11T09:27:57.090Z,1305
2017-04-11T09:28:57.067Z,1415
2017-04-11T09:29:57.051Z,2250
2017-04-11T09:30:57.074Z,2170
2017-04-11T09:31:57.018Z,1830
2017-04-11T09:32:57.002Z,1625
2017-04-11T09:33:56.692Z,1785
2017-04-11T09:34:56.659Z,2680
2017-04-11T09:35:56.940Z,2410
2017-04-11T09:36:56.923Z,2290
2017-04-11T09:37:56.906Z,2235
2017-04-11T09:38:56.885Z,2120
2017-04-11T09:39:56.560Z,1785
2017-04-11T09:40:56.848Z,1530
2017-04-11T09:41:56.528Z,1490
2017-04-11T09:42:56.514Z,2275
2017-04-11T09:43:56.789Z,1905
2017-04-11T09:44:56.772Z,1825
2017-04-11T09:45:56.754Z,1885
2017-04-11T09:46:56.737Z,1560
2017-04-11T09:47:56.422Z,1590
2017-04-11T09:48:56.402Z,1985
2017-04-11T09:49:56.383Z,1890
2017-04-11T09:50:56.669Z,2150
2017-04-11T09:51:56.640Z,1860
2017-04-11T09:52:56.624Z,2015
2017-04-11T09:53:56.609Z,2110
2017-04-11T09:54:55.989Z,1935
2017-04-11T09:55:55.973Z,1930
2017-04-11T09:56:55.951Z,1995
2017-04-11T09:57:55.637Z,1930
2017-04-11T09:58:56.519Z,2145
2017-04-11T09:59:55.901Z,2020
2017-04-11T10:00:56.491Z,2015
2017-04-11T10:01:56.462Z,1930
2017-04-11T10:02:56.448Z,1795
2017-04-11T10:03:56.429Z,1745
2017-04-11T10:04:56.410Z,2465
2017-04-11T10:05:56.393Z,2280
2017-04-11T10:06:55.771Z,1745
2017-04-11T10:07:55.757Z,2010
2017-04-11T10:08:56.343Z,3880
2017-04-11T10:09:56.018Z,3590
2017-04-11T10:10:56.001Z,3285
2017-04-11T10:11:56.282Z,3530
2017-04-11T10:12:56.265Z,3110
2017-04-11T10:13:55.652Z,3330
2017-04-11T10:14:56.228Z,2785
2017-04-11T10:15:55.911Z,2480
2017-04-11T10:16:55.890Z,2600
2017-04-11T10:17:56.173Z,3810
2017-04-11T10:18:55.553Z,2995
2017-04-11T10:19:55.535Z,2795
2017-04-11T10:20:55.518Z,2700
2017-04-11T10:21:55.496Z,2090
2017-04-11T10:22:56.085Z,1890
2017-04-11T10:23:56.066Z,1880
2017-04-11T10:24:56.047Z,2045
2017-04-11T10:25:56.033Z,2175
2017-04-11T10:26:55.407Z,1710
2017-04-11T10:27:55.696Z,1455
2017-04-11T10:28:55.980Z,1460
2017-04-11T10:29:55.352Z,1490
2017-04-11T10:30:55.326Z,1405
2017-04-11T10:31:55.910Z,1500
2017-04-11T10:32:55.912Z,1500
2017-04-11T10:33:55.880Z,1465
2017-04-11T10:34:55.560Z,1540
2017-04-11T10:35:55.843Z,1925
2017-04-11T10:36:55.525Z,1915
2017-04-11T10:37:55.518Z,1965
2017-04-11T10:38:55.181Z,2095
2017-04-11T10:39:55.166Z,2090
2017-04-11T10:40:55.752Z,2310
2017-04-11T10:41:55.443Z,2460
2017-04-11T10:42:55.725Z,2615
2017-04-11T10:43:55.700Z,2290
2017-04-11T10:44:55.670Z,2205
2017-04-11T10:45:54.755Z,2290
2017-04-11T10:46:55.637Z,2260
2017-04-11T10:47:54.720Z,2560
2017-04-11T10:48:55.004Z,2975
2017-04-11T10:49:55.595Z,2590
2017-04-11T10:50:55.266Z,2635
2017-04-11T10:51:55.244Z,3010
2017-04-11T10:52:55.525Z,2915
2017-04-11T10:53:55.516Z,2730
2017-04-11T10:54:54.898Z,3010
2017-04-11T10:55:54.871Z,2905
2017-04-11T10:56:55.463Z,3290
2017-04-11T10:57:55.137Z,3705
2017-04-11T10:58:55.420Z,3170
2017-04-11T10:59:55.403Z,3370
2017-04-11T11:00:55.451Z,4245
2017-04-11T11:01:55.067Z,3590
2017-04-11T11:02:55.350Z,2785
2017-04-11T11:03:55.028Z,2480
2017-04-11T11:04:55.013Z,3095
2017-04-11T11:05:55.298Z,2745
2017-04-11T11:06:55.276Z,2970
2017-04-11T11:07:55.273Z,3245
2017-04-11T11:08:55.246Z,3050
2017-04-11T11:09:54.926Z,3085
2017-04-11T11:10:54.604Z,3170
2017-04-11T11:11:55.185Z,2815
2017-04-11T11:12:54.873Z,2530
2017-04-11T11:13:55.156Z,2310
2017-04-11T11:14:54.536Z,1920
2017-04-11T11:15:55.117Z,2020
2017-04-11T11:16:54.820Z,2015
2017-04-11T11:17:54.489Z,2140
2017-04-11T11:18:55.069Z,2010
2017-04-11T11:19:54.762Z,1860
2017-04-11T11:20:54.430Z,1735
2017-04-11T11:21:54.410Z,1660
2017-04-11T11:22:55.002Z,1555
2017-04-11T11:23:54.982Z,1495
2017-04-11T11:24:54.964Z,1490
2017-04-11T11:25:54.646Z,1565
2017-04-11T11:26:54.324Z,1565
2017-04-11T11:27:54.307Z,1740
2017-04-11T11:28:54.889Z,1640
2017-04-11T11:29:54.870Z,2035
2017-04-11T11:30:54.856Z,1750
2017-04-11T11:31:54.858Z,1840
2017-04-11T11:32:54.821Z,1665
2017-04-11T11:33:54.806Z,1540
2017-04-11T11:34:54.787Z,1480
2017-04-11T11:35:54.470Z,1485
2017-04-11T11:36:54.748Z,1440
2017-04-11T11:37:54.431Z,1465
2017-04-11T11:38:54.113Z,1740
2017-04-11T11:39:54.701Z,2270
2017-04-11T11:40:54.675Z,2975
2017-04-11T11:41:54.657Z,2790
2017-04-11T11:42:54.349Z,3535
2017-04-11T11:43:54.320Z,3260
2017-04-11T11:44:54.299Z,3570
2017-04-11T11:45:54.285Z,2850
2017-04-11T11:46:54.564Z,2625
2017-04-11T11:47:54.551Z,2600
2017-04-11T11:48:54.537Z,2495
2017-04-11T11:49:54.520Z,2675
2017-04-11T11:50:54.197Z,2550
2017-04-11T11:51:54.179Z,2455
2017-04-11T11:52:54.270Z,2200
2017-04-11T11:53:54.142Z,2485
2017-04-11T11:54:54.434Z,3170
2017-04-11T11:55:54.114Z,3735
2017-04-11T11:56:53.796Z,3530
2017-04-11T11:57:54.374Z,3610
2017-04-11T11:58:53.753Z,3710
2017-04-11T11:59:53.743Z,2730
2017-04-11T12:00:54.035Z,2515
2017-04-11T12:01:54.010Z,2625
2017-04-11T12:02:53.696Z,2935
2017-04-11T12:03:54.282Z,3420
2017-04-11T12:04:54.264Z,3280
2017-04-11T12:05:53.950Z,3510
2017-04-11T12:06:53.923Z,3050
2017-04-11T12:07:53.925Z,3095
2017-04-11T12:08:53.904Z,2750
2017-04-11T12:09:54.186Z,2880
2017-04-11T12:10:54.171Z,3155
2017-04-11T12:11:54.156Z,2810
2017-04-11T12:12:54.136Z,2860
2017-04-11T12:13:54.114Z,1965
2017-04-11T12:14:54.304Z,1790
2017-04-11T12:15:54.081Z,2780
2017-04-11T12:16:54.069Z,2705
2017-04-11T12:17:54.053Z,4505
2017-04-11T12:18:54.048Z,4505
2017-04-11T12:19:53.417Z,3690
2017-04-11T12:20:53.693Z,2890
2017-04-11T12:21:53.987Z,2385
2017-04-11T12:22:53.868Z,2185
2017-04-11T12:23:53.351Z,2875
2017-04-11T12:24:53.939Z,2865
2017-04-11T12:25:53.318Z,2450
2017-04-11T12:26:53.297Z,3695
2017-04-11T12:27:53.285Z,3215
2017-04-11T12:28:53.883Z,4465
2017-04-11T12:29:53.557Z,2665
2017-04-11T12:30:53.529Z,2945
2017-04-11T12:31:53.512Z,2405
2017-04-11T12:32:53.499Z,2900
2017-04-11T12:33:53.481Z,5055
2017-04-11T12:34:53.165Z,3295
2017-04-11T12:35:53.451Z,3945
2017-04-11T12:36:53.736Z,2125
2017-04-11T12:37:53.414Z,3490
2017-04-11T12:38:53.704Z,3015
2017-04-11T12:39:53.389Z,3115
2017-04-11T12:40:53.362Z,2175
2017-04-11T12:41:53.646Z,2025
2017-04-11T12:42:53.629Z,1945
2017-04-11T12:44:07.007Z,2550
2017-04-11T12:44:53.601Z,2920
2017-04-11T12:45:53.590Z,3465
2017-04-11T12:46:53.562Z,3505
2017-04-11T12:47:53.550Z,2010
2017-04-11T12:48:53.433Z,1940
2017-04-11T12:49:53.509Z,2550
2017-04-11T12:50:53.207Z,2085
2017-04-11T12:51:53.477Z,2065
2017-04-11T12:52:53.164Z,2370
2017-04-11T12:53:53.142Z,2340
2017-04-11T12:54:53.424Z,2495
2017-04-11T12:55:53.101Z,2030
2017-04-11T12:56:53.404Z,1810
2017-04-11T12:57:53.377Z,3085
2017-04-11T12:58:53.357Z,1790
2017-04-11T12:59:53.333Z,1925
2017-04-11T13:00:53.015Z,3500
2017-04-11T13:01:53.300Z,2270
2017-04-11T13:02:53.284Z,2305
2017-04-11T13:03:53.269Z,4300
2017-04-11T13:04:53.252Z,1635
2017-04-11T13:05:53.229Z,1680
2017-04-11T13:06:53.215Z,2255
2017-04-11T13:07:52.893Z,2180
2017-04-11T13:08:53.181Z,1910
2017-04-11T13:09:52.871Z,1670
2017-04-11T13:10:53.150Z,2155
2017-04-11T13:11:53.130Z,1920
2017-04-11T13:12:53.112Z,2340
2017-04-11T13:13:52.796Z,2480
2017-04-11T13:14:52.787Z,3190
2017-04-11T13:15:52.762Z,2085
2017-04-11T13:16:52.745Z,2985
2017-04-11T13:17:53.026Z,4170
2017-04-11T13:18:53.009Z,2320
2017-04-11T13:20:06.633Z,2065
2017-04-11T13:20:52.981Z,2240
2017-04-11T13:22:06.351Z,1565
2017-04-11T13:22:52.937Z,1770
2017-04-11T13:23:52.933Z,1720
2017-04-11T13:24:52.909Z,1690
2017-04-11T13:25:53.097Z,2000
2017-04-11T13:26:53.079Z,2280
2017-04-11T13:27:52.867Z,2290
2017-04-11T13:28:52.852Z,2670
2017-04-11T13:29:52.865Z,4805
2017-04-11T13:30:52.804Z,2840
2017-04-11T13:31:52.785Z,2730
2017-04-11T13:32:52.773Z,2205
2017-04-11T13:33:52.753Z,3605
2017-04-11T13:34:52.741Z,3710
2017-04-11T13:35:52.723Z,2450
2017-04-11T13:36:52.740Z,2625
2017-04-11T13:37:52.691Z,2790
2017-04-11T13:38:52.675Z,5250
2017-04-11T13:39:52.647Z,4120
2017-04-11T13:40:52.636Z,3245
2017-04-11T13:41:52.310Z,2970
2017-04-11T13:42:52.599Z,4200
2017-04-11T13:43:52.584Z,3930
2017-04-11T13:44:52.564Z,3340
2017-04-11T13:45:52.549Z,2075
2017-04-11T13:46:52.534Z,3155
2017-04-11T13:47:52.520Z,3175
2017-04-11T13:48:52.201Z,3865
2017-04-11T13:49:52.486Z,2260
2017-04-11T13:51:05.851Z,1600
2017-04-11T13:51:52.448Z,1505